LICC/CTA METAR and TAF weather

Enter ICAO airport designator
Station Type Date Time Source
LICC METAR 2021/07/26 17:20 UTC NOAA

LICC 261720Z 05012KT CAVOK 29/19 Q1015


Station Type Date Time Source
LICC Decoded METAR 2021/07/26 17:20 UTC NOAA

Catania / Fontanarossa, Italy (LICC) 37-28N 015-03E 17M
Jul 26, 2021 - 01:20 PM EDT / 2021.07.26 1720 UTC
Wind: from the NE (050 degrees) at 14 MPH (12 KT):0
Visibility: greater than 7 mile(s):0
Temperature: 84 F (29 C)
Dew Point: 66 F (19 C)
Relative Humidity: 54%
Pressure (altimeter): 29.97 in. Hg (1015 hPa)
ob: LICC 261720Z 05012KT CAVOK 29/19 Q1015
cycle: 17

Station Type Date Time Source
LICC TAF 2021/07/26 18:21 UTC NOAA

TAF LICC 261700Z 2618/2718 08014KT CAVOK
BECMG 2619/2621 25006KT
BECMG 2708/2710 08012KT

Example: see airport list